Time;durP1;ratioP1;P1;durP2;ratioP2;P2;SDS_P1;SDS_P2;PMS_P1;PMS_P2;Temp;Humidity;BMP_temperature;BMP_pressure;BME280_temperature;BME280_humidity;BME280_pressure;Samples;Min_cycle;Max_cycle;Signal;HPM_P1;HPM_P2
2022/08/07 00:00:56;;;;;;;9.23;8.32;;;;;;;26.60;100.00;99771.66;5072884;28;20215;-76
2022/08/07 00:03:24;;;;;;;11.15;8.68;;;;;;;26.82;100.00;99795.25;5036771;28;20211;-76
2022/08/07 00:05:53;;;;;;;13.50;8.25;;;;;;;26.96;100.00;99804.22;5077475;28;20191;-77
2022/08/07 00:08:21;;;;;;;10.43;8.32;;;;;;;26.69;100.00;99773.78;5089869;28;20209;-77
2022/08/07 00:10:48;;;;;;;9.57;8.23;;;;;;;26.96;100.00;99795.38;5075607;28;20670;-77
2022/08/07 00:13:16;;;;;;;13.30;7.88;;;;;;;26.87;100.00;99794.06;5082422;28;20224;-76
2022/08/07 00:15:42;;;;;;;9.20;8.27;;;;;;;26.69;100.00;99804.84;5077378;28;20202;-76
2022/08/07 00:18:09;;;;;;;10.75;8.02;;;;;;;26.67;100.00;99799.63;5088758;28;20203;-77
2022/08/07 00:20:36;;;;;;;9.57;8.65;;;;;;;26.63;100.00;99806.06;5072935;28;20567;-77
2022/08/07 00:23:06;;;;;;;10.52;8.32;;;;;;;26.72;100.00;99800.22;5072669;28;20210;-77
2022/08/07 00:25:33;;;;;;;8.75;7.85;;;;;;;26.72;100.00;99792.25;5078612;28;20276;-76
2022/08/07 00:28:00;;;;;;;10.43;8.85;;;;;;;26.72;100.00;99810.84;5090649;28;20207;-76
2022/08/07 00:30:27;;;;;;;9.55;7.85;;;;;;;26.81;100.00;99804.19;5093170;28;20654;-76
2022/08/07 00:32:54;;;;;;;9.73;8.65;;;;;;;26.80;100.00;99808.63;5073599;28;20202;-78
2022/08/07 00:35:21;;;;;;;10.27;8.55;;;;;;;26.80;100.00;99807.78;5072587;28;20198;-77
2022/08/07 00:37:48;;;;;;;8.75;7.95;;;;;;;26.84;100.00;99801.38;5089193;28;20688;-76
2022/08/07 00:40:16;;;;;;;10.27;8.02;;;;;;;26.81;100.00;99805.03;5073522;28;20183;-77
2022/08/07 00:42:43;;;;;;;11.35;8.65;;;;;;;26.84;100.00;99804.91;5080340;28;20222;-77
2022/08/07 00:45:11;;;;;;;8.32;7.53;;;;;;;26.79;100.00;99806.91;5073562;28;20643;-76
2022/08/07 00:47:38;;;;;;;11.10;7.82;;;;;;;26.91;100.00;99806.28;5076245;28;20198;-76
2022/08/07 00:50:06;;;;;;;8.20;7.40;;;;;;;26.99;98.87;99804.03;5051906;28;20195;-76
2022/08/07 00:52:34;;;;;;;9.10;8.18;;;;;;;26.83;99.60;99795.19;5072591;28;20202;-76
2022/08/07 00:55:00;;;;;;;8.68;7.60;;;;;;;26.49;100.00;99787.34;5072489;28;20206;-76
2022/08/07 00:57:29;;;;;;;8.63;7.82;;;;;;;26.43;100.00;99769.91;5085224;28;20216;-77
2022/08/07 00:59:56;;;;;;;12.60;8.57;;;;;;;26.55;100.00;99800.31;5092565;28;20198;-76
2022/08/07 01:02:24;;;;;;;9.95;7.88;;;;;;;26.61;99.38;99789.34;5092268;28;20316;-76
2022/08/07 01:04:52;;;;;;;10.35;8.60;;;;;;;26.57;97.89;99795.78;5075058;28;20537;-77
2022/08/07 01:07:21;;;;;;;12.60;9.02;;;;;;;26.46;97.00;99800.81;5074902;28;20194;-77
2022/08/07 01:09:48;;;;;;;14.88;9.15;;;;;;;26.51;97.37;99812.91;5072419;28;20199;-76
2022/08/07 01:12:16;;;;;;;14.25;8.93;;;;;;;26.62;98.01;99813.19;5073174;28;20203;-77
2022/08/07 01:14:44;;;;;;;13.80;9.68;;;;;;;26.70;97.00;99812.75;5056861;28;20632;-75
2022/08/07 01:17:12;;;;;;;15.63;9.80;;;;;;;26.68;96.52;99809.34;5071957;28;20207;-76
2022/08/07 01:19:39;;;;;;;11.77;9.90;;;;;;;26.73;96.29;99817.91;5021613;28;20961;-77
2022/08/07 01:22:08;;;;;;;14.85;9.93;;;;;;;26.83;95.19;99810.28;5086791;28;20230;-76
2022/08/07 01:24:35;;;;;;;11.95;9.20;;;;;;;26.91;93.73;99806.28;5071788;28;20221;-76
2022/08/07 01:27:03;;;;;;;17.50;9.25;;;;;;;26.83;92.26;99815.63;5078329;28;20198;-77
2022/08/07 01:29:32;;;;;;;11.35;8.93;;;;;;;26.72;93.27;99821.50;5073282;28;20222;-76
2022/08/07 01:32:00;;;;;;;13.32;9.60;;;;;;;26.68;93.86;99808.47;5080459;28;20190;-76
2022/08/07 01:34:30;;;;;;;13.98;9.75;;;;;;;26.69;94.87;99821.69;5091852;28;20202;-77
2022/08/07 01:36:57;;;;;;;11.07;9.18;;;;;;;26.62;95.33;99809.66;5090765;28;20701;-77
2022/08/07 01:39:26;;;;;;;12.52;9.13;;;;;;;26.50;93.77;99784.63;5091900;28;20205;-76
2022/08/07 01:41:53;;;;;;;11.57;9.13;;;;;;;26.70;92.66;99826.06;5086063;28;20771;-76
2022/08/07 01:44:21;;;;;;;9.27;8.32;;;;;;;26.61;93.22;99824.75;5071544;28;20202;-77
2022/08/07 01:46:48;;;;;;;12.40;8.27;;;;;;;26.60;92.07;99819.53;5082907;28;20203;-76
2022/08/07 01:49:15;;;;;;;16.63;8.40;;;;;;;26.57;91.02;99822.38;5071355;28;20198;-76
2022/08/07 01:51:44;;;;;;;9.32;7.93;;;;;;;26.57;89.59;99811.72;5035445;28;20197;-77
2022/08/07 01:54:13;;;;;;;8.77;7.88;;;;;;;26.49;89.03;99820.13;5071389;28;20199;-76
2022/08/07 01:56:48;;;;;;;11.07;7.85;;;;;;;26.48;89.96;99822.84;5076240;28;20216;-77
2022/08/07 01:59:22;;;;;;;12.50;7.30;;;;;;;26.34;90.72;99804.13;5091562;28;20194;-76
2022/08/07 02:01:55;;;;;;;11.65;8.07;;;;;;;26.40;89.13;99815.28;5089373;28;20213;-77
2022/08/07 02:04:27;;;;;;;9.45;8.02;;;;;;;26.33;89.17;99802.41;5090613;28;20207;-77
2022/08/07 02:06:57;;;;;;;11.75;8.05;;;;;;;26.39;90.15;99815.38;5076172;28;20207;-76
2022/08/07 02:09:27;;;;;;;14.95;8.43;;;;;;;26.37;90.14;99822.56;5070930;28;20198;-76
2022/08/07 02:11:57;;;;;;;10.60;7.95;;;;;;;26.41;89.63;99825.00;5072116;28;20230;-76
2022/08/07 02:14:27;;;;;;;11.50;8.38;;;;;;;26.37;90.26;99814.59;5070861;28;20278;-76
2022/08/07 02:16:56;;;;;;;9.00;8.10;;;;;;;26.33;90.37;99819.22;5077053;28;20210;-77
2022/08/07 02:19:24;;;;;;;16.50;9.02;;;;;;;26.10;90.74;99793.00;5091201;28;20194;-77
2022/08/07 02:21:52;;;;;;;11.77;8.68;;;;;;;26.25;90.90;99820.59;5089103;28;20194;-77
2022/08/07 02:24:19;;;;;;;10.38;9.02;;;;;;;26.17;92.06;99828.06;5089879;28;20223;-77
2022/08/07 02:26:48;;;;;;;10.90;9.38;;;;;;;26.03;92.42;99815.50;5087290;28;20194;-77
2022/08/07 02:29:17;;;;;;;12.13;8.98;;;;;;;26.04;91.18;99844.66;5085030;28;20204;-77
2022/08/07 02:31:45;;;;;;;10.20;9.05;;;;;;;25.96;92.91;99840.69;5090375;28;20201;-77
2022/08/07 02:34:12;;;;;;;10.68;8.75;;;;;;;25.78;93.18;99825.69;5087308;28;20647;-77
2022/08/07 02:36:40;;;;;;;10.23;8.27;;;;;;;25.82;92.93;99848.50;5086587;28;20219;-77
2022/08/07 02:39:08;;;;;;;10.95;8.98;;;;;;;25.72;94.33;99848.09;5090714;28;20209;-76
2022/08/07 02:41:35;;;;;;;13.02;8.48;;;;;;;25.43;97.98;99825.66;5086797;28;20222;-77
2022/08/07 02:44:03;;;;;;;11.32;8.85;;;;;;;25.69;96.20;99829.66;5086177;28;20218;-77
2022/08/07 02:46:35;;;;;;;9.30;8.27;;;;;;;25.80;96.26;99840.59;5071946;28;20202;-76
2022/08/07 02:49:03;;;;;;;10.43;8.07;;;;;;;25.73;95.51;99823.25;5090350;28;20605;-76
2022/08/07 02:51:33;;;;;;;13.32;9.20;;;;;;;25.78;95.06;99846.94;5082411;28;20581;-77
2022/08/07 02:54:02;;;;;;;11.88;8.40;;;;;;;25.59;95.36;99816.00;5070733;28;20280;-77
2022/08/07 02:56:31;;;;;;;13.50;8.50;;;;;;;25.69;96.01;99844.72;5071654;28;20206;-77
2022/08/07 02:59:02;;;;;;;11.63;8.63;;;;;;;25.63;95.87;99844.13;5054912;28;20204;-76
2022/08/07 03:01:30;;;;;;;16.75;9.77;;;;;;;25.58;97.34;99845.28;5081417;28;20198;-77
2022/08/07 03:03:58;;;;;;;10.85;8.60;;;;;;;25.54;97.83;99830.47;5074729;28;20218;-77
2022/08/07 03:06:27;;;;;;;15.43;10.15;;;;;;;25.52;98.81;99850.91;5087942;28;20193;-76
2022/08/07 03:08:54;;;;;;;12.45;9.02;;;;;;;25.44;100.00;99851.25;5072392;28;20207;-76
2022/08/07 03:11:22;;;;;;;14.63;10.20;;;;;;;25.60;98.46;99854.91;5070285;28;20651;-76
2022/08/07 03:13:49;;;;;;;16.05;9.93;;;;;;;25.58;98.17;99856.75;5071339;28;20206;-76
2022/08/07 03:16:16;;;;;;;11.77;8.77;;;;;;;25.72;96.28;99855.22;5070110;28;20231;-76
2022/08/07 03:18:43;;;;;;;13.70;8.45;;;;;;;25.54;96.31;99849.03;5070189;28;20191;-77
2022/08/07 03:21:12;;;;;;;14.45;9.60;;;;;;;25.67;94.64;99860.75;5052261;28;20232;-77
2022/08/07 03:23:39;;;;;;;15.73;9.80;;;;;;;25.60;95.57;99869.97;5071125;28;20214;-77
2022/08/07 03:26:07;;;;;;;11.02;9.20;;;;;;;25.54;95.14;99865.81;5071661;28;20194;-77
2022/08/07 03:28:36;;;;;;;17.15;9.73;;;;;;;25.43;94.34;99833.63;5076252;28;20194;-76
2022/08/07 03:31:19;;;;;;;10.68;9.32;;;;;;;25.52;95.89;99861.53;5090083;28;20205;-76
2022/08/07 03:33:49;;;;;;;14.70;9.25;;;;;;;25.60;96.72;99872.63;5075728;28;20198;-76
2022/08/07 03:36:20;;;;;;;14.60;9.43;;;;;;;25.53;96.11;99852.63;5069754;28;20288;-77
2022/08/07 03:38:48;;;;;;;11.80;9.93;;;;;;;25.46;96.85;99867.13;5069981;28;20205;-76
2022/08/07 03:41:16;;;;;;;13.50;10.00;;;;;;;25.46;97.75;99872.41;5070779;28;20195;-76
2022/08/07 03:43:44;;;;;;;12.10;9.55;;;;;;;25.43;97.50;99862.81;5080879;28;20223;-77
2022/08/07 03:46:13;;;;;;;11.80;9.20;;;;;;;25.46;97.09;99877.72;5079254;28;20679;-76
2022/08/07 03:48:40;;;;;;;17.42;8.63;;;;;;;25.49;96.50;99874.91;5089116;28;20206;-77
2022/08/07 03:51:08;;;;;;;11.40;8.70;;;;;;;25.47;96.63;99869.66;5087374;28;20203;-77
2022/08/07 03:53:37;;;;;;;11.73;8.07;;;;;;;25.55;96.25;99872.00;5072784;28;20756;-76
2022/08/07 03:56:05;;;;;;;11.27;9.00;;;;;;;25.51;95.14;99876.59;5081993;28;20207;-77
2022/08/07 03:58:32;;;;;;;13.95;8.13;;;;;;;25.69;95.35;99879.25;5036430;28;20675;-78
2022/08/07 04:01:00;;;;;;;8.75;7.85;;;;;;;26.01;92.18;99884.66;5069649;28;20206;-77
2022/08/07 04:03:28;;;;;;;9.27;8.20;;;;;;;26.12;90.75;99884.13;5078103;28;20222;-77
2022/08/07 04:05:55;;;;;;;10.23;7.95;;;;;;;26.39;89.27;99885.38;5089978;28;20191;-76
2022/08/07 04:08:22;;;;;;;13.18;7.63;;;;;;;26.97;85.39;99885.75;5075130;28;20210;-77
2022/08/07 04:10:51;;;;;;;9.43;7.60;;;;;;;27.45;81.01;99887.50;5073235;28;20221;-77
2022/08/07 04:13:19;;;;;;;13.68;7.32;;;;;;;26.99;82.28;99845.75;5074372;28;20199;-77
2022/08/07 04:15:46;;;;;;;8.90;7.45;;;;;;;27.66;79.87;99884.53;5074711;28;20260;-74
2022/08/07 04:18:14;;;;;;;8.35;7.18;;;;;;;27.77;78.67;99898.09;5078592;28;20198;-74
2022/08/07 04:20:41;;;;;;;15.38;7.28;;;;;;;27.74;77.73;99893.81;5074646;28;20222;-74
2022/08/07 04:23:09;;;;;;;8.25;6.80;;;;;;;27.71;78.12;99898.47;5045428;28;20623;-71
2022/08/07 04:25:38;;;;;;;9.13;6.78;;;;;;;27.94;76.84;99896.16;5076812;28;20202;-71
2022/08/07 04:28:06;;;;;;;20.00;7.70;;;;;;;28.27;76.07;99908.47;5087169;28;20644;-73
2022/08/07 04:30:34;;;;;;;8.32;6.80;;;;;;;28.68;73.15;99914.81;5076143;28;20194;-72
2022/08/07 04:33:05;;;;;;;11.77;7.47;;;;;;;28.36;74.28;99897.25;5073006;28;20260;-73
2022/08/07 04:35:32;;;;;;;9.20;7.47;;;;;;;28.88;71.50;99903.75;5072709;28;20226;-73
2022/08/07 04:37:59;;;;;;;11.13;7.70;;;;;;;28.82;72.01;99906.81;5084666;28;20661;-73
2022/08/07 04:40:26;;;;;;;8.68;7.78;;;;;;;28.90;70.86;99907.19;5092891;28;20226;-76
2022/08/07 04:42:53;;;;;;;8.18;7.38;;;;;;;29.54;68.21;99911.06;5084714;28;20204;-75
2022/08/07 04:45:24;;;;;;;15.90;8.30;;;;;;;30.01;64.92;99910.59;5079627;28;20202;-77
2022/08/07 04:47:58;;;;;;;8.77;7.22;;;;;;;29.51;67.59;99916.63;5085288;28;20191;-78
2022/08/07 04:50:34;;;;;;;9.30;7.32;;;;;;;29.85;65.45;99902.78;5073810;28;20280;-76
2022/08/07 04:53:07;;;;;;;14.45;7.30;;;;;;;29.42;67.14;99910.09;5092228;28;20648;-76
2022/08/07 04:55:42;;;;;;;9.02;7.30;;;;;;;28.66;70.55;99891.81;5080186;28;20756;-78
2022/08/07 04:58:22;;;;;;;10.40;7.55;;;;;;;29.14;69.10;99925.28;5077771;28;20205;-76
2022/08/07 05:00:57;;;;;;;9.82;7.88;;;;;;;29.29;70.09;99924.31;5086831;28;20205;-75
2022/08/07 05:03:28;;;;;;;11.65;7.72;;;;;;;30.00;68.08;99920.44;5076167;28;20237;-72
2022/08/07 05:06:02;;;;;;;8.75;7.85;;;;;;;29.95;66.05;99911.91;5072121;28;20285;-78
2022/08/07 05:08:39;;;;;;;12.52;7.60;;;;;;;30.08;65.03;99927.97;5072879;28;20666;-76
2022/08/07 05:11:11;;;;;;;11.45;8.23;;;;;;;29.99;66.73;99929.44;5072991;28;20677;-77
2022/08/07 05:13:45;;;;;;;10.93;7.80;;;;;;;30.81;64.23;99931.78;5065506;28;20608;-76
2022/08/07 05:16:17;;;;;;;10.05;8.80;;;;;;;31.42;60.30;99941.66;5064856;28;20194;-77
2022/08/07 05:18:50;;;;;;;8.75;7.85;;;;;;;31.39;59.66;99938.34;5071952;28;20198;-77
2022/08/07 05:21:20;;;;;;;10.35;8.60;;;;;;;31.87;57.82;99937.41;5058429;28;20202;-77
2022/08/07 05:23:51;;;;;;;9.95;8.25;;;;;;;32.27;56.46;99939.78;5065069;28;20627;-73
2022/08/07 05:26:22;;;;;;;8.75;7.38;;;;;;;32.08;55.88;99956.41;5063298;28;20225;-75
2022/08/07 05:28:53;;;;;;;9.05;7.90;;;;;;;32.48;55.30;99959.59;5071611;28;20259;-76
2022/08/07 05:31:25;;;;;;;9.32;8.13;;;;;;;32.28;56.16;99962.97;5067947;28;20598;-77
2022/08/07 05:33:53;;;;;;;8.73;7.78;;;;;;;31.24;60.21;99960.91;5040912;28;20201;-77
2022/08/07 05:36:22;;;;;;;11.80;7.55;;;;;;;30.33;64.33;99948.53;5068437;28;20230;-78
2022/08/07 05:38:50;;;;;;;9.85;8.25;;;;;;;30.51;66.99;99963.38;5063364;28;20210;-76
2022/08/07 05:41:17;;;;;;;10.40;8.55;;;;;;;30.01;67.08;99954.25;5061117;28;20206;-77
2022/08/07 05:43:47;;;;;;;9.57;8.07;;;;;;;30.00;68.98;99962.41;5067818;28;20226;-75
2022/08/07 05:46:16;;;;;;;10.75;7.97;;;;;;;29.67;71.14;99943.22;5068447;28;20213;-77
2022/08/07 05:48:45;;;;;;;12.27;9.30;;;;;;;29.40;73.28;99952.06;5067541;28;20234;-74
2022/08/07 05:51:14;;;;;;;17.00;9.75;;;;;;;29.68;73.80;99945.75;5065663;28;20206;-76
2022/08/07 05:53:41;;;;;;;11.60;8.57;;;;;;;29.07;75.23;99953.34;5052307;28;20600;-77
2022/08/07 05:56:09;;;;;;;9.85;8.30;;;;;;;29.49;74.02;99954.16;5065233;28;20211;-76
2022/08/07 05:58:37;;;;;;;9.70;8.20;;;;;;;28.85;77.19;99965.34;5071824;28;20203;-76
2022/08/07 06:01:06;;;;;;;9.32;8.40;;;;;;;28.69;80.87;99958.38;5053624;28;20203;-76
2022/08/07 06:03:35;;;;;;;12.02;8.25;;;;;;;28.44;81.79;99956.31;5059182;28;20218;-76
2022/08/07 06:06:04;;;;;;;10.07;8.05;;;;;;;28.84;78.66;99968.97;5050646;28;20195;-75
2022/08/07 06:08:32;;;;;;;9.45;8.48;;;;;;;28.63;81.18;99969.41;5051949;28;20216;-74
2022/08/07 06:10:59;;;;;;;10.65;8.05;;;;;;;28.29;84.18;99975.91;5050463;28;20643;-76
2022/08/07 06:13:26;;;;;;;11.18;8.48;;;;;;;28.19;83.67;99958.72;5060808;28;20217;-76
2022/08/07 06:15:55;;;;;;;9.50;8.40;;;;;;;28.10;84.94;99969.94;5063324;28;20586;-76
2022/08/07 06:18:23;;;;;;;11.77;9.05;;;;;;;28.12;86.41;99968.03;5023544;28;20191;-76
2022/08/07 06:20:52;;;;;;;14.48;8.93;;;;;;;28.29;85.01;99968.75;5068601;28;20203;-76
2022/08/07 06:23:20;;;;;;;11.82;8.50;;;;;;;28.49;84.21;99973.78;5017877;28;20206;-76
2022/08/07 06:25:47;;;;;;;10.18;8.02;;;;;;;28.77;82.62;99959.63;5069698;28;20207;-76
2022/08/07 06:28:14;;;;;;;13.52;9.50;;;;;;;28.87;82.88;99971.44;5059334;28;20683;-76
2022/08/07 06:30:41;;;;;;;11.27;8.23;;;;;;;28.22;82.80;99921.22;5030266;28;20202;-76
2022/08/07 06:33:09;;;;;;;13.85;8.70;;;;;;;28.81;82.45;99979.84;5040373;28;20788;-76
2022/08/07 06:35:36;;;;;;;14.50;8.95;;;;;;;29.26;82.52;99967.22;5075997;28;20219;-75
2022/08/07 06:38:04;;;;;;;10.45;8.63;;;;;;;29.26;80.12;99970.78;5081468;28;20206;-76
2022/08/07 06:40:39;;;;;;;10.43;7.93;;;;;;;29.07;79.81;99974.69;5072561;28;20207;-74
2022/08/07 06:43:08;;;;;;;9.07;8.18;;;;;;;28.93;81.43;99979.06;5066902;28;20241;-75
2022/08/07 06:45:35;;;;;;;9.30;8.18;;;;;;;28.82;81.69;99970.88;5069909;28;20604;-76
2022/08/07 06:48:05;;;;;;;20.65;8.35;;;;;;;29.03;80.29;99974.03;5079991;28;20215;-77
2022/08/07 06:50:34;;;;;;;10.88;9.02;;;;;;;29.23;79.75;99972.75;5069892;28;20202;-76
2022/08/07 06:53:02;;;;;;;10.43;8.45;;;;;;;29.67;78.12;99980.63;5069739;28;20217;-74
2022/08/07 06:55:32;;;;;;;10.45;8.00;;;;;;;29.79;77.61;99935.22;5069993;28;20230;-74
2022/08/07 06:58:02;;;;;;;10.43;8.30;;;;;;;30.03;74.20;99983.59;5049049;28;20218;-75
2022/08/07 07:00:34;;;;;;;9.63;8.50;;;;;;;29.88;74.06;99966.75;5076349;28;20203;-75
2022/08/07 07:03:02;;;;;;;9.25;8.35;;;;;;;29.97;74.95;99976.81;5069634;28;20756;-76
2022/08/07 07:05:29;;;;;;;10.15;8.55;;;;;;;30.08;74.91;99985.94;5075638;28;20228;-76
2022/08/07 07:07:57;;;;;;;10.68;7.90;;;;;;;29.72;73.45;99914.34;5075137;28;20717;-75
2022/08/07 07:10:28;;;;;;;9.10;8.20;;;;;;;30.25;73.20;99988.38;5076608;28;20706;-76
2022/08/07 07:13:02;;;;;;;9.50;8.55;;;;;;;30.19;74.42;99984.25;5034067;28;20194;-76
2022/08/07 07:15:31;;;;;;;8.90;8.02;;;;;;;29.90;73.44;99988.00;5056432;28;20214;-77
2022/08/07 07:18:03;;;;;;;9.77;8.23;;;;;;;30.09;75.27;99987.66;5069588;28;20722;-76
2022/08/07 07:20:35;;;;;;;9.57;7.80;;;;;;;29.87;75.09;99983.75;5069947;28;20280;-75
2022/08/07 07:23:03;;;;;;;9.75;8.43;;;;;;;30.33;73.04;99991.34;5035663;28;20202;-76
2022/08/07 07:25:30;;;;;;;10.98;9.88;;;;;;;30.52;71.72;99986.50;5055659;28;20590;-77
2022/08/07 07:28:05;;;;;;;8.98;7.90;;;;;;;30.40;72.17;99979.28;5068900;28;20210;-75
2022/08/07 07:30:38;;;;;;;9.15;8.25;;;;;;;30.86;71.25;99988.53;5052943;28;20190;-76
2022/08/07 07:33:07;;;;;;;10.00;8.60;;;;;;;31.06;69.88;99980.97;5064286;28;20203;-74
2022/08/07 07:35:35;;;;;;;8.57;7.78;;;;;;;30.84;67.30;99982.44;5057024;28;20234;-73
2022/08/07 07:38:03;;;;;;;9.15;8.23;;;;;;;31.07;70.27;99982.69;5066223;28;20199;-74
2022/08/07 07:40:32;;;;;;;10.52;8.45;;;;;;;30.98;67.50;99985.03;5056941;28;20194;-75
2022/08/07 07:43:02;;;;;;;11.18;7.75;;;;;;;31.17;67.86;99999.81;5080968;28;20289;-76
2022/08/07 07:45:31;;;;;;;11.68;8.00;;;;;;;31.19;65.78;99998.72;5068800;28;20223;-76
2022/08/07 07:48:00;;;;;;;9.77;7.95;;;;;;;30.73;66.70;99927.94;5054952;28;20209;-77
2022/08/07 07:50:28;;;;;;;8.23;7.50;;;;;;;31.37;64.38;99981.34;5066387;28;20199;-76
2022/08/07 07:52:57;;;;;;;11.77;7.45;;;;;;;31.42;66.66;99987.22;5068202;28;20671;-76
2022/08/07 07:55:27;;;;;;;9.10;7.97;;;;;;;31.21;63.44;99966.47;5062448;28;20631;-77
2022/08/07 07:57:56;;;;;;;8.43;7.60;;;;;;;31.61;64.00;99988.56;5068564;28;20198;-77
2022/08/07 08:00:27;;;;;;;8.75;7.90;;;;;;;31.81;62.40;99991.53;5067419;28;20283;-76
2022/08/07 08:02:57;;;;;;;13.43;10.18;;;;;;;31.93;62.35;99979.84;5071852;28;20677;-74
2022/08/07 08:05:24;;;;;;;26.48;18.90;;;;;;;32.13;60.68;99982.91;5066184;28;20226;-75
2022/08/07 08:07:51;;;;;;;8.63;7.72;;;;;;;32.08;60.57;99971.66;5069583;28;20198;-76
2022/08/07 08:10:20;;;;;;;8.50;7.72;;;;;;;31.77;59.51;99979.31;5070240;28;20194;-76
2022/08/07 08:12:50;;;;;;;8.15;7.35;;;;;;;32.10;59.61;99970.59;5062450;28;20206;-76
2022/08/07 08:15:17;;;;;;;7.43;6.78;;;;;;;32.01;59.57;99983.78;5070375;28;20217;-77
2022/08/07 08:17:46;;;;;;;8.48;7.68;;;;;;;32.14;62.34;99981.94;5067390;28;20213;-77
2022/08/07 08:20:16;;;;;;;7.70;6.90;;;;;;;32.19;59.66;99985.97;5070851;28;20256;-75
2022/08/07 08:28:22;;;;;;;8.43;6.93;;;;;;;32.01;59.93;99984.66;5071641;28;20205;-77
2022/08/07 08:30:53;;;;;;;8.18;7.47;;;;;;;32.26;61.15;99987.22;5048020;28;20203;-77
2022/08/07 08:33:24;;;;;;;8.55;7.70;;;;;;;32.42;58.44;99992.28;5069601;28;20213;-76
2022/08/07 08:35:54;;;;;;;9.93;7.88;;;;;;;32.77;56.56;99993.13;5055422;28;20234;-77
2022/08/07 08:38:25;;;;;;;9.00;7.35;;;;;;;32.89;56.02;99977.91;5057272;28;20637;-75
2022/08/07 08:40:57;;;;;;;7.90;7.10;;;;;;;33.20;55.62;99992.44;5055839;28;20252;-77
2022/08/07 08:43:35;;;;;;;9.88;7.72;;;;;;;33.15;56.27;99973.13;5051371;28;20206;-77
2022/08/07 08:46:09;;;;;;;9.30;7.43;;;;;;;33.47;55.02;99986.66;5054984;28;20222;-77
2022/08/07 08:48:45;;;;;;;13.00;7.68;;;;;;;33.71;52.74;99988.25;5062584;28;20209;-76
2022/08/07 08:51:19;;;;;;;8.82;7.50;;;;;;;33.77;51.85;99984.22;5063025;28;20229;-77
2022/08/07 08:53:54;;;;;;;10.05;6.97;;;;;;;33.73;52.88;99978.22;5051015;28;20234;-75
2022/08/07 08:56:26;;;;;;;7.20;6.50;;;;;;;33.63;52.02;99982.66;5017707;28;20602;-76
2022/08/07 08:59:00;;;;;;;6.88;6.20;;;;;;;33.06;53.72;99981.91;5050166;28;20210;-75
2022/08/07 09:01:34;;;;;;;7.38;6.70;;;;;;;33.21;53.47;99991.50;5063354;28;20191;-75
2022/08/07 09:04:08;;;;;;;24.05;18.77;;;;;;;33.12;51.42;99981.44;5054623;28;20210;-73
2022/08/07 09:06:52;;;;;;;13.57;8.48;;;;;;;33.52;49.78;99977.28;5055840;28;20682;-77
2022/08/07 09:09:35;;;;;;;9.80;8.30;;;;;;;34.02;49.91;99967.72;5069994;28;20213;-73
2022/08/07 09:12:11;;;;;;;7.03;6.43;;;;;;;33.93;48.35;99951.50;5072433;28;20709;-75
2022/08/07 09:14:46;;;;;;;7.15;6.47;;;;;;;34.08;48.51;99974.41;5071224;28;20259;-75
2022/08/07 09:17:22;;;;;;;7.55;6.85;;;;;;;33.88;48.37;99950.06;5067152;28;20730;-74
2022/08/07 09:19:57;;;;;;;9.75;7.25;;;;;;;33.61;47.80;99968.44;5075798;28;20285;-74
2022/08/07 09:22:40;;;;;;;8.40;6.78;;;;;;;33.78;47.42;99957.16;5071254;28;20209;-75
2022/08/07 09:25:10;;;;;;;7.30;6.80;;;;;;;33.63;47.92;99971.91;5054812;28;20234;-76
2022/08/07 09:27:46;;;;;;;9.45;6.93;;;;;;;33.64;48.20;99962.81;5081145;28;20198;-77
2022/08/07 09:30:16;;;;;;;7.75;6.97;;;;;;;33.70;48.95;99956.09;5071548;28;20237;-76
2022/08/07 09:33:00;;;;;;;7.60;6.90;;;;;;;33.79;47.65;99958.03;5071394;28;20336;-76
2022/08/07 09:35:40;;;;;;;7.22;6.63;;;;;;;33.53;48.36;99938.66;5047902;28;20290;-76
2022/08/07 09:38:16;;;;;;;12.82;6.78;;;;;;;33.48;48.68;99950.75;5057715;28;20214;-75
2022/08/07 09:40:57;;;;;;;8.45;6.80;;;;;;;33.10;49.57;99956.50;5069252;28;20202;-75
2022/08/07 09:43:33;;;;;;;8.52;7.35;;;;;;;32.77;51.71;99963.59;5056162;28;21125;-77
2022/08/07 09:46:13;;;;;;;7.47;6.70;;;;;;;32.18;53.84;99956.56;5022932;28;20706;-74
2022/08/07 09:48:49;;;;;;;7.82;7.13;;;;;;;32.02;54.03;99956.00;5061563;28;20204;-76
2022/08/07 09:51:31;;;;;;;10.48;7.07;;;;;;;31.85;57.41;99950.09;5065656;28;20217;-77
2022/08/07 09:54:01;;;;;;;28.83;10.35;;;;;;;31.96;71.10;99942.06;5070650;28;20201;-78
2022/08/07 09:56:59;;;;;;;30.92;10.20;;;;;;;31.48;94.35;99948.38;5079324;28;20589;-77
2022/08/07 09:59:41;;;;;;;22.75;10.68;;;;;;;31.29;100.00;99945.31;5053752;28;20199;-77
2022/08/07 10:02:34;;;;;;;32.13;12.07;;;;;;;31.41;100.00;99931.03;5057955;28;20202;-75
2022/08/07 10:05:30;;;;;;;30.55;10.15;;;;;;;31.46;100.00;99936.94;5034951;28;20288;-74
2022/08/07 10:08:16;;;;;;;19.13;10.82;;;;;;;31.98;92.77;99927.69;5069494;28;20204;-72
2022/08/07 10:10:52;;;;;;;14.55;10.45;;;;;;;32.16;100.00;99920.97;5064298;28;20211;-77
2022/08/07 10:13:44;;;;;;;13.82;10.00;;;;;;;32.67;100.00;99932.19;5074175;28;20194;-78
2022/08/07 10:16:22;;;;;;;29.00;20.33;;;;;;;32.62;100.00;99908.38;5058770;28;20203;-77
2022/08/07 10:19:17;;;;;;;27.35;18.13;;;;;;;32.96;96.45;99935.28;5072610;28;20569;-74
2022/08/07 10:21:55;;;;;;;12.43;11.07;;;;;;;33.33;100.00;99925.97;5070395;28;20210;-74
2022/08/07 10:24:44;;;;;;;11.68;9.50;;;;;;;33.51;98.15;99929.84;5069949;28;20646;-75
2022/08/07 10:27:26;;;;;;;9.40;8.38;;;;;;;33.56;84.50;99916.00;5069719;28;20271;-74
2022/08/07 10:30:09;;;;;;;8.65;7.82;;;;;;;33.71;75.31;99929.06;5059175;28;20662;-76
2022/08/07 10:32:56;;;;;;;9.48;8.27;;;;;;;33.86;86.57;99924.22;5028239;28;20602;-74
2022/08/07 10:35:29;;;;;;;10.73;8.88;;;;;;;33.74;87.47;99931.53;4967665;28;20239;-73
2022/08/07 10:38:12;;;;;;;9.90;8.93;;;;;;;33.54;86.05;99912.56;5031430;28;20201;-74
2022/08/07 10:40:47;;;;;;;9.93;8.40;;;;;;;33.61;89.97;99928.09;4999671;28;20195;-75
2022/08/07 10:43:18;;;;;;;10.23;9.00;;;;;;;33.48;87.73;99905.88;4994624;28;20230;-75
2022/08/07 10:45:49;;;;;;;10.18;8.68;;;;;;;33.34;90.62;99933.06;5027301;28;20238;-76
2022/08/07 10:48:34;;;;;;;10.05;8.98;;;;;;;33.05;90.27;99915.72;5020545;28;20200;-76
2022/08/07 10:51:06;;;;;;;10.27;8.65;;;;;;;32.80;88.53;99920.38;4996658;28;20269;-76
2022/08/07 10:53:41;;;;;;;14.55;8.07;;;;;;;32.44;74.98;99936.66;5027536;28;20235;-75
2022/08/07 10:56:15;;;;;;;10.20;8.95;;;;;;;32.54;86.28;99937.63;5026701;28;20215;-76
2022/08/07 10:58:51;;;;;;;7.40;6.65;;;;;;;31.34;71.03;99922.59;5028732;28;20249;-72
2022/08/07 11:01:35;;;;;;;9.48;7.28;;;;;;;31.06;80.22;99938.97;5016798;28;20715;-74
2022/08/07 11:04:13;;;;;;;11.00;8.50;;;;;;;30.64;84.86;99945.50;5007491;28;20255;-74
2022/08/07 11:06:50;;;;;;;8.88;8.13;;;;;;;30.81;85.87;99945.19;4989297;28;20222;-75
2022/08/07 11:09:22;;;;;;;10.10;8.35;;;;;;;30.77;82.13;99937.47;4982673;28;20206;-77
2022/08/07 11:12:11;;;;;;;9.80;8.80;;;;;;;31.28;84.58;99922.19;5054143;28;20206;-75
2022/08/07 11:14:41;;;;;;;10.52;9.07;;;;;;;31.63;86.75;99928.53;5052358;28;20685;-76
2022/08/07 11:17:15;;;;;;;8.88;7.97;;;;;;;31.94;77.93;99933.28;5041391;28;20206;-77
2022/08/07 11:19:50;;;;;;;9.27;7.82;;;;;;;32.30;78.80;99924.28;5069234;28;20208;-76
2022/08/07 11:22:25;;;;;;;7.82;7.03;;;;;;;32.61;68.44;99920.09;5069816;28;20197;-76
2022/08/07 11:24:59;;;;;;;10.68;8.02;;;;;;;33.03;72.30;99909.63;5069458;28;20291;-74
2022/08/07 11:27:38;;;;;;;10.90;7.90;;;;;;;33.25;73.02;99914.97;5073744;28;20197;-75
2022/08/07 11:30:06;;;;;;;8.32;7.38;;;;;;;32.79;61.92;99878.34;5068809;28;20198;-76
2022/08/07 11:32:38;;;;;;;8.05;7.32;;;;;;;33.06;59.45;99886.03;5069409;28;20209;-77
2022/08/07 11:35:09;;;;;;;7.90;7.20;;;;;;;33.74;58.95;99901.94;5069244;28;20284;-76
2022/08/07 11:37:59;;;;;;;8.43;7.38;;;;;;;33.94;58.73;99904.75;5075011;28;20230;-76
2022/08/07 11:40:35;;;;;;;7.95;7.15;;;;;;;34.74;53.91;99904.06;5068850;28;20299;-76
2022/08/07 11:43:14;;;;;;;11.00;7.13;;;;;;;34.68;48.84;99898.34;5069338;28;20681;-73
2022/08/07 11:46:03;;;;;;;8.30;6.75;;;;;;;35.15;47.50;99891.47;5069102;28;20229;-74
2022/08/07 11:49:14;;;;;;;7.65;6.93;;;;;;;35.30;46.54;99887.38;5067328;28;20213;-74
2022/08/07 11:51:52;;;;;;;7.43;6.75;;;;;;;35.23;45.42;99891.63;5060637;28;20198;-75